sensor_id;sensor_type;location;lat;lon;timestamp;P1;durP1;ratioP1;P2;durP2;ratioP2
64550;SDS011;50945;44.472;-123.352;2023-05-10T00:01:39;1.52;;;0.82;;
64550;SDS011;50945;44.472;-123.352;2023-05-10T00:04:05;2.42;;;1.05;;
64550;SDS011;50945;44.472;-123.352;2023-05-10T00:06:32;0.77;;;0.77;;
64550;SDS011;50945;44.472;-123.352;2023-05-10T00:08:58;1.35;;;1.15;;
64550;SDS011;50945;44.472;-123.352;2023-05-10T00:11:24;1.33;;;0.98;;
64550;SDS011;50945;44.472;-123.352;2023-05-10T00:13:50;1.27;;;1.20;;
64550;SDS011;50945;44.472;-123.352;2023-05-10T00:16:16;1.15;;;1.05;;
64550;SDS011;50945;44.472;-123.352;2023-05-10T00:18:44;1.08;;;1.08;;
64550;SDS011;50945;44.472;-123.352;2023-05-10T00:21:10;1.10;;;1.00;;
64550;SDS011;50945;44.472;-123.352;2023-05-10T00:23:36;1.98;;;1.17;;
64550;SDS011;50945;44.472;-123.352;2023-05-10T00:26:02;1.80;;;1.10;;
64550;SDS011;50945;44.472;-123.352;2023-05-10T00:30:55;1.33;;;1.23;;
64550;SDS011;50945;44.472;-123.352;2023-05-10T00:35:47;1.35;;;1.23;;
64550;SDS011;50945;44.472;-123.352;2023-05-10T00:38:13;2.10;;;1.60;;
64550;SDS011;50945;44.472;-123.352;2023-05-10T00:40:39;1.60;;;1.50;;
64550;SDS011;50945;44.472;-123.352;2023-05-10T00:43:06;2.00;;;1.70;;
64550;SDS011;50945;44.472;-123.352;2023-05-10T00:45:34;3.22;;;1.25;;
64550;SDS011;50945;44.472;-123.352;2023-05-10T00:48:02;1.95;;;1.55;;
64550;SDS011;50945;44.472;-123.352;2023-05-10T00:50:30;1.75;;;1.20;;
64550;SDS011;50945;44.472;-123.352;2023-05-10T00:52:59;1.30;;;1.30;;
64550;SDS011;50945;44.472;-123.352;2023-05-10T00:55:27;2.33;;;1.55;;
64550;SDS011;50945;44.472;-123.352;2023-05-10T01:00:19;1.65;;;1.33;;
64550;SDS011;50945;44.472;-123.352;2023-05-10T01:02:46;3.40;;;1.65;;
64550;SDS011;50945;44.472;-123.352;2023-05-10T01:05:14;2.67;;;1.70;;
64550;SDS011;50945;44.472;-123.352;2023-05-10T01:07:40;1.35;;;1.25;;
64550;SDS011;50945;44.472;-123.352;2023-05-10T01:10:07;1.25;;;1.20;;
64550;SDS011;50945;44.472;-123.352;2023-05-10T01:12:35;2.88;;;1.52;;
64550;SDS011;50945;44.472;-123.352;2023-05-10T01:15:05;2.63;;;1.40;;
64550;SDS011;50945;44.472;-123.352;2023-05-10T01:17:36;1.05;;;1.00;;
64550;SDS011;50945;44.472;-123.352;2023-05-10T01:20:05;1.42;;;1.33;;
64550;SDS011;50945;44.472;-123.352;2023-05-10T01:22:39;3.08;;;1.67;;
64550;SDS011;50945;44.472;-123.352;2023-05-10T01:25:40;1.45;;;1.33;;
64550;SDS011;50945;44.472;-123.352;2023-05-10T01:31:58;2.78;;;2.58;;
64550;SDS011;50945;44.472;-123.352;2023-05-10T01:34:42;4.18;;;1.77;;
64550;SDS011;50945;44.472;-123.352;2023-05-10T01:37:39;1.25;;;1.25;;
64550;SDS011;50945;44.472;-123.352;2023-05-10T01:40:23;5.97;;;1.80;;
64550;SDS011;50945;44.472;-123.352;2023-05-10T01:43:10;2.80;;;1.95;;
64550;SDS011;50945;44.472;-123.352;2023-05-10T01:45:47;1.90;;;1.73;;
64550;SDS011;50945;44.472;-123.352;2023-05-10T01:48:25;1.50;;;1.40;;
64550;SDS011;50945;44.472;-123.352;2023-05-10T01:50:53;2.15;;;1.58;;
64550;SDS011;50945;44.472;-123.352;2023-05-10T01:53:21;2.63;;;1.48;;
64550;SDS011;50945;44.472;-123.352;2023-05-10T01:55:50;3.10;;;2.13;;
64550;SDS011;50945;44.472;-123.352;2023-05-10T01:58:29;3.30;;;1.42;;
64550;SDS011;50945;44.472;-123.352;2023-05-10T02:00:59;1.70;;;1.60;;
64550;SDS011;50945;44.472;-123.352;2023-05-10T02:03:33;1.92;;;1.48;;
64550;SDS011;50945;44.472;-123.352;2023-05-10T02:06:03;2.17;;;1.60;;
64550;SDS011;50945;44.472;-123.352;2023-05-10T02:08:31;2.42;;;1.45;;
64550;SDS011;50945;44.472;-123.352;2023-05-10T02:11:01;1.65;;;1.55;;
64550;SDS011;50945;44.472;-123.352;2023-05-10T02:13:31;1.08;;;1.08;;
64550;SDS011;50945;44.472;-123.352;2023-05-10T02:16:00;1.58;;;1.50;;
64550;SDS011;50945;44.472;-123.352;2023-05-10T02:18:28;2.30;;;1.65;;
64550;SDS011;50945;44.472;-123.352;2023-05-10T02:20:57;1.63;;;1.58;;
64550;SDS011;50945;44.472;-123.352;2023-05-10T02:23:25;3.05;;;1.70;;
64550;SDS011;50945;44.472;-123.352;2023-05-10T02:25:52;2.72;;;1.40;;
64550;SDS011;50945;44.472;-123.352;2023-05-10T02:28:23;1.85;;;1.40;;
64550;SDS011;50945;44.472;-123.352;2023-05-10T02:30:50;2.55;;;1.70;;
64550;SDS011;50945;44.472;-123.352;2023-05-10T02:33:18;2.70;;;1.73;;
64550;SDS011;50945;44.472;-123.352;2023-05-10T02:35:47;2.35;;;1.20;;
64550;SDS011;50945;44.472;-123.352;2023-05-10T02:38:16;1.88;;;1.73;;
64550;SDS011;50945;44.472;-123.352;2023-05-10T02:40:47;2.03;;;1.50;;
64550;SDS011;50945;44.472;-123.352;2023-05-10T02:43:14;1.77;;;1.67;;
64550;SDS011;50945;44.472;-123.352;2023-05-10T02:45:43;7.07;;;2.08;;
64550;SDS011;50945;44.472;-123.352;2023-05-10T02:48:12;2.75;;;1.60;;
64550;SDS011;50945;44.472;-123.352;2023-05-10T02:50:38;2.75;;;1.92;;
64550;SDS011;50945;44.472;-123.352;2023-05-10T02:53:18;3.08;;;1.80;;
64550;SDS011;50945;44.472;-123.352;2023-05-10T02:55:49;2.33;;;1.58;;
64550;SDS011;50945;44.472;-123.352;2023-05-10T02:58:18;1.98;;;1.45;;
64550;SDS011;50945;44.472;-123.352;2023-05-10T03:00:47;1.95;;;1.60;;
64550;SDS011;50945;44.472;-123.352;2023-05-10T03:03:13;1.83;;;1.58;;
64550;SDS011;50945;44.472;-123.352;2023-05-10T03:05:39;2.97;;;1.60;;
64550;SDS011;50945;44.472;-123.352;2023-05-10T03:08:05;5.50;;;2.03;;
64550;SDS011;50945;44.472;-123.352;2023-05-10T03:10:32;3.22;;;1.80;;
64550;SDS011;50945;44.472;-123.352;2023-05-10T03:18:33;3.42;;;2.30;;
64550;SDS011;50945;44.472;-123.352;2023-05-10T03:21:10;2.22;;;1.90;;
64550;SDS011;50945;44.472;-123.352;2023-05-10T03:23:41;3.83;;;2.45;;
64550;SDS011;50945;44.472;-123.352;2023-05-10T03:26:15;3.65;;;2.00;;
64550;SDS011;50945;44.472;-123.352;2023-05-10T03:28:45;3.90;;;2.00;;
64550;SDS011;50945;44.472;-123.352;2023-05-10T03:31:15;2.25;;;2.05;;
64550;SDS011;50945;44.472;-123.352;2023-05-10T03:33:48;2.15;;;1.92;;
64550;SDS011;50945;44.472;-123.352;2023-05-10T03:36:17;2.20;;;2.00;;
64550;SDS011;50945;44.472;-123.352;2023-05-10T03:38:44;1.95;;;1.85;;
64550;SDS011;50945;44.472;-123.352;2023-05-10T03:41:10;3.08;;;1.80;;
64550;SDS011;50945;44.472;-123.352;2023-05-10T03:43:36;2.95;;;1.67;;
64550;SDS011;50945;44.472;-123.352;2023-05-10T03:46:04;3.85;;;1.70;;
64550;SDS011;50945;44.472;-123.352;2023-05-10T03:48:31;2.20;;;2.10;;
64550;SDS011;50945;44.472;-123.352;2023-05-10T03:50:58;4.43;;;1.90;;
64550;SDS011;50945;44.472;-123.352;2023-05-10T03:53:25;2.05;;;1.80;;
64550;SDS011;50945;44.472;-123.352;2023-05-10T03:55:52;2.83;;;1.98;;
64550;SDS011;50945;44.472;-123.352;2023-05-10T03:58:19;3.15;;;1.90;;
64550;SDS011;50945;44.472;-123.352;2023-05-10T04:00:47;3.00;;;2.33;;
64550;SDS011;50945;44.472;-123.352;2023-05-10T04:03:13;2.30;;;2.10;;
64550;SDS011;50945;44.472;-123.352;2023-05-10T04:05:40;2.70;;;2.47;;
64550;SDS011;50945;44.472;-123.352;2023-05-10T04:08:06;3.55;;;2.25;;
64550;SDS011;50945;44.472;-123.352;2023-05-10T04:10:32;2.70;;;2.50;;
64550;SDS011;50945;44.472;-123.352;2023-05-10T04:12:59;3.50;;;2.20;;
64550;SDS011;50945;44.472;-123.352;2023-05-10T04:15:26;2.50;;;2.20;;
64550;SDS011;50945;44.472;-123.352;2023-05-10T04:17:52;2.20;;;2.00;;
64550;SDS011;50945;44.472;-123.352;2023-05-10T04:20:20;2.17;;;1.80;;
64550;SDS011;50945;44.472;-123.352;2023-05-10T04:22:47;3.22;;;2.17;;
64550;SDS011;50945;44.472;-123.352;2023-05-10T04:25:13;2.35;;;2.05;;
64550;SDS011;50945;44.472;-123.352;2023-05-10T04:27:39;3.00;;;2.38;;
64550;SDS011;50945;44.472;-123.352;2023-05-10T04:30:05;2.60;;;1.73;;
64550;SDS011;50945;44.472;-123.352;2023-05-10T04:32:32;6.80;;;3.35;;
64550;SDS011;50945;44.472;-123.352;2023-05-10T04:35:02;3.60;;;2.92;;
64550;SDS011;50945;44.472;-123.352;2023-05-10T04:37:30;4.32;;;2.60;;
64550;SDS011;50945;44.472;-123.352;2023-05-10T04:39:56;5.00;;;2.90;;
64550;SDS011;50945;44.472;-123.352;2023-05-10T04:42:22;4.82;;;2.63;;
64550;SDS011;50945;44.472;-123.352;2023-05-10T04:44:48;4.97;;;2.58;;
64550;SDS011;50945;44.472;-123.352;2023-05-10T04:47:17;2.75;;;2.22;;
64550;SDS011;50945;44.472;-123.352;2023-05-10T04:49:43;2.50;;;2.30;;
64550;SDS011;50945;44.472;-123.352;2023-05-10T04:52:09;5.40;;;2.30;;
64550;SDS011;50945;44.472;-123.352;2023-05-10T04:54:36;4.90;;;2.00;;
64550;SDS011;50945;44.472;-123.352;2023-05-10T04:57:02;2.20;;;2.00;;
64550;SDS011;50945;44.472;-123.352;2023-05-10T04:59:29;2.35;;;1.90;;
64550;SDS011;50945;44.472;-123.352;2023-05-10T05:01:55;2.20;;;1.95;;
64550;SDS011;50945;44.472;-123.352;2023-05-10T05:04:21;2.17;;;1.90;;
64550;SDS011;50945;44.472;-123.352;2023-05-10T05:06:49;3.00;;;2.10;;
64550;SDS011;50945;44.472;-123.352;2023-05-10T05:09:15;2.53;;;2.03;;
64550;SDS011;50945;44.472;-123.352;2023-05-10T05:11:41;2.92;;;2.00;;
64550;SDS011;50945;44.472;-123.352;2023-05-10T05:14:07;3.53;;;2.00;;
64550;SDS011;50945;44.472;-123.352;2023-05-10T05:16:33;2.25;;;2.05;;
64550;SDS011;50945;44.472;-123.352;2023-05-10T05:19:00;3.05;;;2.20;;
64550;SDS011;50945;44.472;-123.352;2023-05-10T05:21:26;3.03;;;2.30;;
64550;SDS011;50945;44.472;-123.352;2023-05-10T05:23:54;2.85;;;2.42;;
64550;SDS011;50945;44.472;-123.352;2023-05-10T05:26:20;2.42;;;2.22;;
64550;SDS011;50945;44.472;-123.352;2023-05-10T05:28:47;2.85;;;1.98;;
64550;SDS011;50945;44.472;-123.352;2023-05-10T05:31:13;2.08;;;1.83;;
64550;SDS011;50945;44.472;-123.352;2023-05-10T05:33:40;2.80;;;2.05;;
64550;SDS011;50945;44.472;-123.352;2023-05-10T05:36:10;1.95;;;1.83;;
64550;SDS011;50945;44.472;-123.352;2023-05-10T05:38:37;4.50;;;2.03;;
64550;SDS011;50945;44.472;-123.352;2023-05-10T05:41:03;2.88;;;2.38;;
64550;SDS011;50945;44.472;-123.352;2023-05-10T05:43:29;1.38;;;1.33;;
64550;SDS011;50945;44.472;-123.352;2023-05-10T05:45:55;6.53;;;2.20;;
64550;SDS011;50945;44.472;-123.352;2023-05-10T05:48:23;2.35;;;1.70;;
64550;SDS011;50945;44.472;-123.352;2023-05-10T05:50:55;2.90;;;1.88;;
64550;SDS011;50945;44.472;-123.352;2023-05-10T05:53:22;2.17;;;1.90;;
64550;SDS011;50945;44.472;-123.352;2023-05-10T05:55:53;2.22;;;2.10;;
64550;SDS011;50945;44.472;-123.352;2023-05-10T05:58:23;4.00;;;1.92;;
64550;SDS011;50945;44.472;-123.352;2023-05-10T06:00:53;3.75;;;2.00;;
64550;SDS011;50945;44.472;-123.352;2023-05-10T06:03:19;2.28;;;2.00;;
64550;SDS011;50945;44.472;-123.352;2023-05-10T06:05:46;2.28;;;2.08;;
64550;SDS011;50945;44.472;-123.352;2023-05-10T06:08:12;5.32;;;2.55;;
64550;SDS011;50945;44.472;-123.352;2023-05-10T06:10:38;2.25;;;2.05;;
64550;SDS011;50945;44.472;-123.352;2023-05-10T06:13:04;1.98;;;1.77;;
64550;SDS011;50945;44.472;-123.352;2023-05-10T06:15:31;2.78;;;2.03;;
64550;SDS011;50945;44.472;-123.352;2023-05-10T06:17:57;1.77;;;1.67;;
64550;SDS011;50945;44.472;-123.352;2023-05-10T06:20:24;1.88;;;1.77;;
64550;SDS011;50945;44.472;-123.352;2023-05-10T06:22:50;1.65;;;1.55;;
64550;SDS011;50945;44.472;-123.352;2023-05-10T06:25:16;2.97;;;1.83;;
64550;SDS011;50945;44.472;-123.352;2023-05-10T06:27:43;1.88;;;1.70;;
64550;SDS011;50945;44.472;-123.352;2023-05-10T06:30:10;5.78;;;2.22;;
64550;SDS011;50945;44.472;-123.352;2023-05-10T06:32:38;1.77;;;1.67;;
64550;SDS011;50945;44.472;-123.352;2023-05-10T06:35:04;3.28;;;1.80;;
64550;SDS011;50945;44.472;-123.352;2023-05-10T06:37:31;2.47;;;2.28;;
64550;SDS011;50945;44.472;-123.352;2023-05-10T06:39:57;3.80;;;2.10;;
64550;SDS011;50945;44.472;-123.352;2023-05-10T06:42:23;2.10;;;1.90;;
64550;SDS011;50945;44.472;-123.352;2023-05-10T06:44:50;3.03;;;1.80;;
64550;SDS011;50945;44.472;-123.352;2023-05-10T06:47:18;1.85;;;1.75;;
64550;SDS011;50945;44.472;-123.352;2023-05-10T06:49:44;2.00;;;1.90;;
64550;SDS011;50945;44.472;-123.352;2023-05-10T06:52:10;2.25;;;1.70;;
64550;SDS011;50945;44.472;-123.352;2023-05-10T06:54:37;3.08;;;1.95;;
64550;SDS011;50945;44.472;-123.352;2023-05-10T06:57:03;2.92;;;2.03;;
64550;SDS011;50945;44.472;-123.352;2023-05-10T06:59:29;3.33;;;2.42;;
64550;SDS011;50945;44.472;-123.352;2023-05-10T07:01:56;3.70;;;1.60;;
64550;SDS011;50945;44.472;-123.352;2023-05-10T07:04:22;2.03;;;1.83;;
64550;SDS011;50945;44.472;-123.352;2023-05-10T07:06:48;2.88;;;1.70;;
64550;SDS011;50945;44.472;-123.352;2023-05-10T07:09:14;3.72;;;2.10;;
64550;SDS011;50945;44.472;-123.352;2023-05-10T07:11:41;2.28;;;1.90;;
64550;SDS011;50945;44.472;-123.352;2023-05-10T07:14:07;3.42;;;1.98;;
64550;SDS011;50945;44.472;-123.352;2023-05-10T07:16:33;1.77;;;1.50;;
64550;SDS011;50945;44.472;-123.352;2023-05-10T07:18:59;2.08;;;1.88;;
64550;SDS011;50945;44.472;-123.352;2023-05-10T07:21:26;1.58;;;1.48;;
64550;SDS011;50945;44.472;-123.352;2023-05-10T07:23:54;2.28;;;2.13;;
64550;SDS011;50945;44.472;-123.352;2023-05-10T07:26:20;2.45;;;2.17;;
64550;SDS011;50945;44.472;-123.352;2023-05-10T07:28:46;2.17;;;1.98;;
64550;SDS011;50945;44.472;-123.352;2023-05-10T07:31:12;1.80;;;1.70;;
64550;SDS011;50945;44.472;-123.352;2023-05-10T07:33:38;1.92;;;1.67;;
64550;SDS011;50945;44.472;-123.352;2023-05-10T07:36:05;1.77;;;1.67;;
64550;SDS011;50945;44.472;-123.352;2023-05-10T07:38:31;1.98;;;1.80;;
64550;SDS011;50945;44.472;-123.352;2023-05-10T07:40:57;2.28;;;1.52;;
64550;SDS011;50945;44.472;-123.352;2023-05-10T07:43:23;4.03;;;2.10;;
64550;SDS011;50945;44.472;-123.352;2023-05-10T07:45:49;2.08;;;1.85;;
64550;SDS011;50945;44.472;-123.352;2023-05-10T07:48:15;2.47;;;1.92;;
64550;SDS011;50945;44.472;-123.352;2023-05-10T07:50:42;3.58;;;1.83;;
64550;SDS011;50945;44.472;-123.352;2023-05-10T07:53:08;2.75;;;1.85;;
64550;SDS011;50945;44.472;-123.352;2023-05-10T07:58:00;3.00;;;1.80;;
64550;SDS011;50945;44.472;-123.352;2023-05-10T08:00:27;2.78;;;2.10;;
64550;SDS011;50945;44.472;-123.352;2023-05-10T08:02:53;3.70;;;2.25;;
64550;SDS011;50945;44.472;-123.352;2023-05-10T08:05:19;4.68;;;2.22;;
64550;SDS011;50945;44.472;-123.352;2023-05-10T08:07:46;2.20;;;2.00;;
64550;SDS011;50945;44.472;-123.352;2023-05-10T08:10:13;4.93;;;2.22;;
64550;SDS011;50945;44.472;-123.352;2023-05-10T08:12:39;2.05;;;1.95;;
64550;SDS011;50945;44.472;-123.352;2023-05-10T08:15:05;2.20;;;1.95;;
64550;SDS011;50945;44.472;-123.352;2023-05-10T08:19:58;3.92;;;1.83;;
64550;SDS011;50945;44.472;-123.352;2023-05-10T08:22:24;1.90;;;1.80;;
64550;SDS011;50945;44.472;-123.352;2023-05-10T08:24:50;5.20;;;2.20;;
64550;SDS011;50945;44.472;-123.352;2023-05-10T08:27:18;4.20;;;2.42;;
64550;SDS011;50945;44.472;-123.352;2023-05-10T08:29:45;2.22;;;1.83;;
64550;SDS011;50945;44.472;-123.352;2023-05-10T08:32:11;5.82;;;1.95;;
64550;SDS011;50945;44.472;-123.352;2023-05-10T08:34:37;2.83;;;1.70;;
64550;SDS011;50945;44.472;-123.352;2023-05-10T08:37:03;3.95;;;2.10;;
64550;SDS011;50945;44.472;-123.352;2023-05-10T08:39:29;3.15;;;1.95;;
64550;SDS011;50945;44.472;-123.352;2023-05-10T08:42:01;3.95;;;1.60;;
64550;SDS011;50945;44.472;-123.352;2023-05-10T08:44:32;2.40;;;2.10;;
64550;SDS011;50945;44.472;-123.352;2023-05-10T08:47:05;1.92;;;1.80;;
64550;SDS011;50945;44.472;-123.352;2023-05-10T08:49:32;1.88;;;1.77;;
64550;SDS011;50945;44.472;-123.352;2023-05-10T08:51:59;3.63;;;2.20;;
64550;SDS011;50945;44.472;-123.352;2023-05-10T08:54:33;4.50;;;1.90;;
64550;SDS011;50945;44.472;-123.352;2023-05-10T08:57:00;5.72;;;1.75;;
64550;SDS011;50945;44.472;-123.352;2023-05-10T08:59:27;3.38;;;1.77;;
64550;SDS011;50945;44.472;-123.352;2023-05-10T09:01:53;2.10;;;1.90;;
64550;SDS011;50945;44.472;-123.352;2023-05-10T09:04:23;2.08;;;1.73;;
64550;SDS011;50945;44.472;-123.352;2023-05-10T09:06:50;3.30;;;2.00;;
64550;SDS011;50945;44.472;-123.352;2023-05-10T09:09:17;3.05;;;2.40;;
64550;SDS011;50945;44.472;-123.352;2023-05-10T09:11:44;2.15;;;1.90;;
64550;SDS011;50945;44.472;-123.352;2023-05-10T09:14:10;2.33;;;2.15;;
64550;SDS011;50945;44.472;-123.352;2023-05-10T09:16:39;5.13;;;2.08;;
64550;SDS011;50945;44.472;-123.352;2023-05-10T09:19:06;2.03;;;1.90;;
64550;SDS011;50945;44.472;-123.352;2023-05-10T09:24:06;3.33;;;1.98;;
64550;SDS011;50945;44.472;-123.352;2023-05-10T09:26:34;6.15;;;2.38;;
64550;SDS011;50945;44.472;-123.352;2023-05-10T09:29:02;2.00;;;1.90;;
64550;SDS011;50945;44.472;-123.352;2023-05-10T09:31:50;5.63;;;2.92;;
64550;SDS011;50945;44.472;-123.352;2023-05-10T09:34:29;2.28;;;2.00;;
64550;SDS011;50945;44.472;-123.352;2023-05-10T09:36:58;1.48;;;1.38;;
64550;SDS011;50945;44.472;-123.352;2023-05-10T09:39:30;2.28;;;1.90;;
64550;SDS011;50945;44.472;-123.352;2023-05-10T09:42:01;2.38;;;1.65;;
64550;SDS011;50945;44.472;-123.352;2023-05-10T09:44:30;2.10;;;1.90;;
64550;SDS011;50945;44.472;-123.352;2023-05-10T09:46:57;2.45;;;1.60;;
64550;SDS011;50945;44.472;-123.352;2023-05-10T09:49:24;3.13;;;1.98;;
64550;SDS011;50945;44.472;-123.352;2023-05-10T09:52:03;4.95;;;1.95;;
64550;SDS011;50945;44.472;-123.352;2023-05-10T09:54:30;5.20;;;2.20;;
64550;SDS011;50945;44.472;-123.352;2023-05-10T09:56:57;4.05;;;1.75;;
64550;SDS011;50945;44.472;-123.352;2023-05-10T09:59:24;2.90;;;1.90;;
64550;SDS011;50945;44.472;-123.352;2023-05-10T10:01:53;1.88;;;1.73;;
64550;SDS011;50945;44.472;-123.352;2023-05-10T10:04:25;3.42;;;1.80;;
64550;SDS011;50945;44.472;-123.352;2023-05-10T10:07:02;4.15;;;1.95;;
64550;SDS011;50945;44.472;-123.352;2023-05-10T10:09:30;2.13;;;2.03;;
64550;SDS011;50945;44.472;-123.352;2023-05-10T10:11:58;2.35;;;2.10;;
64550;SDS011;50945;44.472;-123.352;2023-05-10T10:14:28;2.22;;;1.85;;
64550;SDS011;50945;44.472;-123.352;2023-05-10T10:16:55;1.98;;;1.67;;
64550;SDS011;50945;44.472;-123.352;2023-05-10T10:19:21;3.03;;;1.67;;
64550;SDS011;50945;44.472;-123.352;2023-05-10T10:21:48;2.83;;;1.90;;
64550;SDS011;50945;44.472;-123.352;2023-05-10T10:24:15;3.67;;;1.85;;
64550;SDS011;50945;44.472;-123.352;2023-05-10T10:26:42;4.47;;;2.03;;
64550;SDS011;50945;44.472;-123.352;2023-05-10T10:29:15;2.10;;;2.00;;
64550;SDS011;50945;44.472;-123.352;2023-05-10T10:34:45;2.03;;;1.70;;
64550;SDS011;50945;44.472;-123.352;2023-05-10T10:37:12;2.13;;;1.80;;
64550;SDS011;50945;44.472;-123.352;2023-05-10T10:39:38;2.60;;;1.88;;
64550;SDS011;50945;44.472;-123.352;2023-05-10T10:42:04;2.95;;;1.40;;
64550;SDS011;50945;44.472;-123.352;2023-05-10T10:47:09;1.75;;;1.30;;
64550;SDS011;50945;44.472;-123.352;2023-05-10T10:50:05;1.70;;;1.58;;
64550;SDS011;50945;44.472;-123.352;2023-05-10T10:52:41;3.90;;;2.47;;
64550;SDS011;50945;44.472;-123.352;2023-05-10T10:57:55;1.48;;;1.48;;
64550;SDS011;50945;44.472;-123.352;2023-05-10T11:00:30;1.35;;;1.33;;
64550;SDS011;50945;44.472;-123.352;2023-05-10T11:07:51;3.08;;;1.80;;
64550;SDS011;50945;44.472;-123.352;2023-05-10T11:10:21;2.00;;;1.90;;
64550;SDS011;50945;44.472;-123.352;2023-05-10T11:12:52;1.60;;;1.50;;
64550;SDS011;50945;44.472;-123.352;2023-05-10T11:15:30;1.80;;;1.70;;
64550;SDS011;50945;44.472;-123.352;2023-05-10T11:17:57;1.77;;;1.52;;
64550;SDS011;50945;44.472;-123.352;2023-05-10T11:20:26;2.53;;;1.58;;
64550;SDS011;50945;44.472;-123.352;2023-05-10T11:22:58;1.65;;;1.55;;
64550;SDS011;50945;44.472;-123.352;2023-05-10T11:25:44;4.35;;;1.58;;
64550;SDS011;50945;44.472;-123.352;2023-05-10T11:28:11;2.47;;;1.50;;
64550;SDS011;50945;44.472;-123.352;2023-05-10T11:30:38;2.88;;;1.90;;
64550;SDS011;50945;44.472;-123.352;2023-05-10T11:35:32;2.78;;;2.03;;
64550;SDS011;50945;44.472;-123.352;2023-05-10T11:38:13;4.90;;;1.85;;
64550;SDS011;50945;44.472;-123.352;2023-05-10T11:40:40;4.05;;;2.03;;
64550;SDS011;50945;44.472;-123.352;2023-05-10T11:43:07;5.80;;;1.85;;
64550;SDS011;50945;44.472;-123.352;2023-05-10T11:45:35;1.88;;;1.55;;
64550;SDS011;50945;44.472;-123.352;2023-05-10T11:48:02;1.80;;;1.70;;
64550;SDS011;50945;44.472;-123.352;2023-05-10T11:50:28;2.03;;;1.88;;
64550;SDS011;50945;44.472;-123.352;2023-05-10T11:52:55;1.80;;;1.60;;
64550;SDS011;50945;44.472;-123.352;2023-05-10T11:55:22;2.92;;;1.30;;
64550;SDS011;50945;44.472;-123.352;2023-05-10T11:57:52;2.20;;;1.90;;
64550;SDS011;50945;44.472;-123.352;2023-05-10T12:00:19;1.85;;;1.70;;
64550;SDS011;50945;44.472;-123.352;2023-05-10T12:02:45;2.70;;;1.70;;
64550;SDS011;50945;44.472;-123.352;2023-05-10T12:05:12;1.95;;;1.58;;
64550;SDS011;50945;44.472;-123.352;2023-05-10T12:10:12;2.78;;;1.25;;
64550;SDS011;50945;44.472;-123.352;2023-05-10T12:12:41;3.65;;;1.80;;
64550;SDS011;50945;44.472;-123.352;2023-05-10T12:15:10;2.25;;;2.13;;
64550;SDS011;50945;44.472;-123.352;2023-05-10T12:17:38;4.03;;;3.20;;
64550;SDS011;50945;44.472;-123.352;2023-05-10T12:20:15;4.40;;;4.00;;
64550;SDS011;50945;44.472;-123.352;2023-05-10T12:22:46;3.25;;;2.90;;
64550;SDS011;50945;44.472;-123.352;2023-05-10T12:25:20;4.65;;;3.35;;
64550;SDS011;50945;44.472;-123.352;2023-05-10T12:27:51;4.15;;;2.60;;
64550;SDS011;50945;44.472;-123.352;2023-05-10T12:30:19;7.57;;;2.00;;
64550;SDS011;50945;44.472;-123.352;2023-05-10T12:32:46;3.55;;;1.88;;
64550;SDS011;50945;44.472;-123.352;2023-05-10T12:35:12;3.97;;;2.13;;
64550;SDS011;50945;44.472;-123.352;2023-05-10T12:37:38;3.63;;;2.13;;
64550;SDS011;50945;44.472;-123.352;2023-05-10T12:40:05;2.05;;;1.88;;
64550;SDS011;50945;44.472;-123.352;2023-05-10T12:42:33;1.80;;;1.70;;
64550;SDS011;50945;44.472;-123.352;2023-05-10T12:45:01;1.88;;;1.77;;
64550;SDS011;50945;44.472;-123.352;2023-05-10T12:47:28;3.63;;;1.63;;
64550;SDS011;50945;44.472;-123.352;2023-05-10T12:49:54;3.83;;;2.10;;
64550;SDS011;50945;44.472;-123.352;2023-05-10T12:52:20;2.83;;;2.63;;
64550;SDS011;50945;44.472;-123.352;2023-05-10T12:54:46;3.08;;;2.22;;
64550;SDS011;50945;44.472;-123.352;2023-05-10T12:57:12;4.20;;;2.13;;
64550;SDS011;50945;44.472;-123.352;2023-05-10T12:59:39;2.40;;;1.77;;
64550;SDS011;50945;44.472;-123.352;2023-05-10T13:02:05;7.10;;;1.60;;
64550;SDS011;50945;44.472;-123.352;2023-05-10T13:04:32;1.88;;;1.60;;
64550;SDS011;50945;44.472;-123.352;2023-05-10T13:06:58;2.55;;;1.40;;
64550;SDS011;50945;44.472;-123.352;2023-05-10T13:09:24;1.13;;;1.05;;
64550;SDS011;50945;44.472;-123.352;2023-05-10T13:11:51;1.30;;;1.20;;
64550;SDS011;50945;44.472;-123.352;2023-05-10T13:14:19;1.60;;;1.50;;
64550;SDS011;50945;44.472;-123.352;2023-05-10T13:16:48;1.10;;;1.10;;
64550;SDS011;50945;44.472;-123.352;2023-05-10T13:19:15;1.58;;;1.48;;
64550;SDS011;50945;44.472;-123.352;2023-05-10T13:21:42;1.55;;;1.20;;
64550;SDS011;50945;44.472;-123.352;2023-05-10T13:24:10;1.77;;;1.60;;
64550;SDS011;50945;44.472;-123.352;2023-05-10T13:26:39;2.63;;;1.20;;
64550;SDS011;50945;44.472;-123.352;2023-05-10T13:29:06;1.63;;;1.30;;
64550;SDS011;50945;44.472;-123.352;2023-05-10T13:31:33;1.50;;;1.42;;
64550;SDS011;50945;44.472;-123.352;2023-05-10T13:36:25;2.10;;;1.55;;
64550;SDS011;50945;44.472;-123.352;2023-05-10T13:38:52;1.92;;;1.27;;
64550;SDS011;50945;44.472;-123.352;2023-05-10T13:41:18;2.47;;;1.70;;
64550;SDS011;50945;44.472;-123.352;2023-05-10T13:43:44;1.25;;;1.23;;
64550;SDS011;50945;44.472;-123.352;2023-05-10T13:46:10;3.25;;;1.85;;
64550;SDS011;50945;44.472;-123.352;2023-05-10T13:48:36;3.25;;;1.67;;
64550;SDS011;50945;44.472;-123.352;2023-05-10T13:51:02;3.28;;;1.40;;
64550;SDS011;50945;44.472;-123.352;2023-05-10T13:53:29;1.92;;;1.77;;
64550;SDS011;50945;44.472;-123.352;2023-05-10T13:58:22;2.90;;;2.05;;
64550;SDS011;50945;44.472;-123.352;2023-05-10T14:00:48;1.90;;;1.77;;
64550;SDS011;50945;44.472;-123.352;2023-05-10T14:03:14;1.77;;;1.63;;
64550;SDS011;50945;44.472;-123.352;2023-05-10T14:05:41;1.30;;;1.20;;
64550;SDS011;50945;44.472;-123.352;2023-05-10T14:08:07;4.30;;;2.40;;
64550;SDS011;50945;44.472;-123.352;2023-05-10T14:10:35;3.70;;;1.48;;
64550;SDS011;50945;44.472;-123.352;2023-05-10T14:13:03;2.25;;;1.33;;
64550;SDS011;50945;44.472;-123.352;2023-05-10T14:15:29;1.98;;;1.80;;
64550;SDS011;50945;44.472;-123.352;2023-05-10T14:17:55;2.28;;;1.33;;
64550;SDS011;50945;44.472;-123.352;2023-05-10T14:20:22;1.65;;;1.55;;
64550;SDS011;50945;44.472;-123.352;2023-05-10T14:22:48;2.88;;;1.35;;
64550;SDS011;50945;44.472;-123.352;2023-05-10T14:25:14;2.33;;;1.70;;
64550;SDS011;50945;44.472;-123.352;2023-05-10T14:27:40;1.63;;;1.35;;
64550;SDS011;50945;44.472;-123.352;2023-05-10T14:30:06;2.08;;;1.20;;
64550;SDS011;50945;44.472;-123.352;2023-05-10T14:32:33;2.70;;;1.70;;
64550;SDS011;50945;44.472;-123.352;2023-05-10T14:35:01;2.55;;;1.77;;
64550;SDS011;50945;44.472;-123.352;2023-05-10T14:37:28;2.33;;;2.20;;
64550;SDS011;50945;44.472;-123.352;2023-05-10T14:39:54;4.00;;;2.22;;
64550;SDS011;50945;44.472;-123.352;2023-05-10T14:42:20;4.32;;;2.17;;
64550;SDS011;50945;44.472;-123.352;2023-05-10T14:44:47;2.90;;;2.03;;
64550;SDS011;50945;44.472;-123.352;2023-05-10T14:47:13;3.42;;;1.85;;
64550;SDS011;50945;44.472;-123.352;2023-05-10T14:49:39;2.53;;;2.00;;
64550;SDS011;50945;44.472;-123.352;2023-05-10T14:52:06;2.47;;;2.00;;
64550;SDS011;50945;44.472;-123.352;2023-05-10T14:54:32;3.55;;;1.67;;
64550;SDS011;50945;44.472;-123.352;2023-05-10T14:56:58;2.20;;;2.00;;
64550;SDS011;50945;44.472;-123.352;2023-05-10T14:59:25;2.30;;;2.10;;
64550;SDS011;50945;44.472;-123.352;2023-05-10T15:01:52;3.53;;;2.42;;